Time;durP1;ratioP1;P1;durP2;ratioP2;P2;SDS_P1;SDS_P2;PMS_P1;PMS_P2;Temp;Humidity;BMP_temperature;BMP_pressure;BME280_temperature;BME280_humidity;BME280_pressure;Samples;Min_cycle;Max_cycle;Signal;HPM_P1;HPM_P2
2022/09/25 00:00:38;;;;;;;10.65;6.72;;;;;;;-142.57;100.00;68379.81;5039754;28;20026;-77
2022/09/25 00:03:03;;;;;;;19.25;7.90;;;;;;;-142.57;100.00;68379.81;5052648;28;20020;-79
2022/09/25 00:05:29;;;;;;;19.17;7.30;;;;;;;-142.57;100.00;68379.81;5046731;28;20020;-77
2022/09/25 00:07:55;;;;;;;13.98;7.88;;;;;;;-142.57;100.00;68379.81;5058819;28;20387;-76
2022/09/25 00:10:24;;;;;;;22.70;7.75;;;;;;;-142.57;100.00;68379.81;5033890;28;20025;-79
2022/09/25 00:12:50;;;;;;;10.95;7.07;;;;;;;-142.57;100.00;68379.81;5037314;28;20028;-78
2022/09/25 00:15:15;;;;;;;15.60;7.97;;;;;;;-142.57;100.00;68379.81;5036557;28;20029;-78
2022/09/25 00:17:40;;;;;;;11.70;7.40;;;;;;;-142.57;100.00;68379.81;5054336;28;20070;-77
2022/09/25 00:20:06;;;;;;;16.95;8.98;;;;;;;-142.57;100.00;68379.81;5033609;28;20022;-76
2022/09/25 00:22:32;;;;;;;18.85;9.02;;;;;;;-142.57;100.00;68379.81;5035305;28;20415;-77
2022/09/25 00:24:57;;;;;;;22.80;9.98;;;;;;;-142.57;100.00;68379.81;5048092;28;20025;-75
2022/09/25 00:27:23;;;;;;;19.80;10.45;;;;;;;-142.57;100.00;68379.81;5044618;28;20025;-76
2022/09/25 00:29:48;;;;;;;15.27;8.80;;;;;;;-142.57;100.00;68379.81;5053279;28;20067;-76
2022/09/25 00:32:14;;;;;;;15.30;9.48;;;;;;;-142.57;100.00;68379.81;5054338;28;20460;-76
2022/09/25 00:34:40;;;;;;;26.90;10.88;;;;;;;-142.57;100.00;68379.81;5053789;28;20381;-76
2022/09/25 00:37:05;;;;;;;15.25;10.02;;;;;;;-142.57;100.00;68379.81;5069820;28;20112;-77
2022/09/25 00:39:32;;;;;;;13.45;9.70;;;;;;;-142.57;100.00;68379.81;5031829;28;20023;-76
2022/09/25 00:41:57;;;;;;;16.20;9.68;;;;;;;-142.57;100.00;68379.81;5031461;28;20395;-76
2022/09/25 00:44:58;;;;;;;16.00;10.07;;;;;;;-142.57;100.00;68379.81;5058029;28;20025;-76
2022/09/25 00:47:30;;;;;;;17.17;10.63;;;;;;;-142.57;100.00;68379.81;5024818;28;20107;-76
2022/09/25 00:49:57;;;;;;;18.25;10.77;;;;;;;-142.57;100.00;68379.81;5051586;28;20064;-76
2022/09/25 00:52:23;;;;;;;17.88;10.43;;;;;;;-142.57;100.00;68379.81;5035038;28;20028;-76
2022/09/25 00:55:00;;;;;;;20.98;11.25;;;;;;;-142.57;100.00;68379.81;5021199;28;20969;-77
2022/09/25 00:57:29;;;;;;;21.50;10.18;;;;;;;-142.57;100.00;68379.81;4999657;28;20853;-77
2022/09/25 01:00:02;;;;;;;15.20;9.65;;;;;;;-142.57;100.00;68379.81;5017690;28;20065;-76
2022/09/25 01:02:31;;;;;;;18.58;8.73;;;;;;;-142.57;100.00;68379.81;5023248;28;20035;-76
2022/09/25 01:05:03;;;;;;;23.92;10.43;;;;;;;-142.57;100.00;68379.81;5034330;28;20025;-76
2022/09/25 01:07:30;;;;;;;20.98;9.80;;;;;;;-142.57;100.00;68379.81;5067546;28;20032;-76
2022/09/25 01:09:58;;;;;;;15.82;9.77;;;;;;;-142.57;100.00;68379.81;5032993;28;20448;-76
2022/09/25 01:12:24;;;;;;;17.58;10.00;;;;;;;-142.57;100.00;68379.81;5049572;28;20036;-76
2022/09/25 01:14:50;;;;;;;26.23;9.43;;;;;;;-142.57;100.00;68379.81;5043311;28;20479;-76
2022/09/25 01:17:29;;;;;;;12.73;8.18;;;;;;;-142.57;100.00;68379.81;5054231;28;20035;-76
2022/09/25 01:19:57;;;;;;;20.70;9.48;;;;;;;-142.57;100.00;68379.81;5052490;28;20037;-76
2022/09/25 01:22:44;;;;;;;24.75;10.30;;;;;;;-142.57;100.00;68379.81;5065896;28;20158;-76
2022/09/25 01:25:12;;;;;;;14.65;7.05;;;;;;;-142.57;100.00;68379.81;5051110;28;20051;-76
2022/09/25 01:27:56;;;;;;;22.13;8.00;;;;;;;-142.57;100.00;68379.81;5052135;28;20112;-75
2022/09/25 01:30:22;;;;;;;18.85;9.07;;;;;;;-142.57;100.00;68379.81;5042676;28;20021;-75
2022/09/25 01:32:53;;;;;;;24.13;8.50;;;;;;;-142.57;100.00;68379.81;5051630;28;20031;-74
2022/09/25 01:35:36;;;;;;;18.35;7.93;;;;;;;-142.57;100.00;68379.81;5047354;28;20075;-75
2022/09/25 01:38:21;;;;;;;20.30;8.65;;;;;;;-142.57;100.00;68379.81;5064255;28;20027;-73
2022/09/25 01:40:55;;;;;;;15.32;7.90;;;;;;;-142.57;100.00;68379.81;5051292;28;20491;-74
2022/09/25 01:43:40;;;;;;;19.35;8.57;;;;;;;-142.57;100.00;68379.81;5034654;28;20036;-74
2022/09/25 01:46:17;;;;;;;15.52;8.02;;;;;;;-142.57;100.00;68379.81;5032301;28;20029;-74
2022/09/25 01:48:44;;;;;;;28.20;8.43;;;;;;;-142.57;100.00;68379.81;5048396;28;20031;-74
2022/09/25 01:51:20;;;;;;;11.82;6.85;;;;;;;-142.57;100.00;68379.81;5051337;28;20074;-75
2022/09/25 01:54:09;;;;;;;13.43;6.35;;;;;;;-142.57;100.00;68379.81;5035060;28;20048;-74
2022/09/25 01:56:42;;;;;;;19.80;7.05;;;;;;;-142.57;100.00;68379.81;5053314;28;20033;-74
2022/09/25 01:59:11;;;;;;;30.73;8.20;;;;;;;-142.57;100.00;68379.81;5048136;28;20055;-74
2022/09/25 02:01:41;;;;;;;13.30;7.28;;;;;;;-142.57;100.00;68379.81;5046639;28;20452;-75
2022/09/25 02:04:10;;;;;;;24.33;6.57;;;;;;;-142.57;100.00;68379.81;5051063;28;20056;-75
2022/09/25 02:06:37;;;;;;;19.70;6.53;;;;;;;-142.57;100.00;68379.81;5042535;28;20029;-75
2022/09/25 02:09:06;;;;;;;15.82;6.82;;;;;;;-142.57;100.00;68379.81;5047441;28;20464;-74
2022/09/25 02:11:36;;;;;;;15.90;6.30;;;;;;;-142.57;100.00;68379.81;5051161;28;20017;-75
2022/09/25 02:14:11;;;;;;;10.40;5.68;;;;;;;-142.57;100.00;68379.81;5051984;28;20020;-74
2022/09/25 02:16:38;;;;;;;11.57;5.93;;;;;;;-142.57;100.00;68379.81;5063606;28;20032;-75
2022/09/25 02:22:03;;;;;;;13.55;5.60;;;;;;;-142.57;100.00;68379.81;5045312;28;20036;-74
2022/09/25 02:24:39;;;;;;;15.30;6.00;;;;;;;-142.57;100.00;68379.81;5047390;28;20024;-74
2022/09/25 02:27:05;;;;;;;10.45;5.15;;;;;;;-142.57;100.00;68379.81;5042975;28;20095;-74
2022/09/25 02:29:31;;;;;;;12.95;5.13;;;;;;;-142.57;100.00;68379.81;5046609;28;20471;-74
2022/09/25 02:32:03;;;;;;;12.10;5.43;;;;;;;-142.57;100.00;68379.81;5047643;28;20058;-73
2022/09/25 02:34:30;;;;;;;14.13;5.88;;;;;;;-142.57;100.00;68379.81;5074176;28;20460;-73
2022/09/25 02:36:56;;;;;;;12.10;5.50;;;;;;;-142.57;100.00;68379.81;5043870;28;20071;-74
2022/09/25 02:39:25;;;;;;;13.73;5.13;;;;;;;-142.57;100.00;68379.81;5026806;28;20090;-74
2022/09/25 02:42:16;;;;;;;14.93;5.53;;;;;;;-142.57;100.00;68379.81;5030811;28;20152;-74
2022/09/25 02:44:45;;;;;;;12.18;5.07;;;;;;;-142.57;100.00;68379.81;5060149;28;20041;-75
2022/09/25 02:47:13;;;;;;;18.60;5.47;;;;;;;-142.57;100.00;68379.81;5062458;28;20036;-74
2022/09/25 02:50:04;;;;;;;30.45;5.90;;;;;;;-142.57;100.00;68379.81;5057057;28;20028;-75
2022/09/25 02:52:47;;;;;;;11.50;5.15;;;;;;;-142.57;100.00;68379.81;5043833;28;20057;-75
2022/09/25 02:55:25;;;;;;;22.70;6.28;;;;;;;-142.57;100.00;68379.81;5051848;28;20417;-75
2022/09/25 02:57:58;;;;;;;17.63;5.43;;;;;;;-142.57;100.00;68379.81;5067628;28;20025;-75
2022/09/25 03:00:23;;;;;;;10.60;4.65;;;;;;;-142.57;100.00;68379.81;5051313;28;20159;-75
2022/09/25 03:02:52;;;;;;;22.52;6.28;;;;;;;-142.57;100.00;68379.81;5052579;28;20112;-75
2022/09/25 03:05:18;;;;;;;12.63;5.20;;;;;;;-142.57;100.00;68379.81;5037789;28;20482;-74
2022/09/25 03:10:28;;;;;;;11.85;4.43;;;;;;;-142.57;100.00;68379.81;5051938;28;20044;-74
2022/09/25 03:12:53;;;;;;;9.27;4.22;;;;;;;-142.57;100.00;68379.81;5063212;28;20017;-75
2022/09/25 03:15:18;;;;;;;13.27;4.80;;;;;;;-142.57;100.00;68379.81;5051804;28;20467;-75
2022/09/25 03:17:47;;;;;;;12.65;4.55;;;;;;;-142.57;100.00;68379.81;5033595;28;20032;-75
2022/09/25 03:20:12;;;;;;;16.35;4.85;;;;;;;-142.57;100.00;68379.81;5040392;28;20028;-74
2022/09/25 03:22:38;;;;;;;14.18;5.55;;;;;;;-142.57;100.00;68379.81;5050723;28;20020;-76
2022/09/25 03:25:04;;;;;;;13.68;5.25;;;;;;;-142.57;100.00;68379.81;5051418;28;20024;-76
2022/09/25 03:27:29;;;;;;;16.50;4.38;;;;;;;-142.57;100.00;68379.81;5035131;28;20025;-73
2022/09/25 03:29:55;;;;;;;12.05;4.72;;;;;;;-142.57;100.00;68379.81;5054336;28;20430;-76
2022/09/25 03:32:21;;;;;;;15.88;5.65;;;;;;;-142.57;100.00;68379.81;5034551;28;20029;-79
2022/09/25 03:34:46;;;;;;;13.75;4.57;;;;;;;-142.57;100.00;68379.81;5041535;28;20383;-80
2022/09/25 03:37:11;;;;;;;15.02;5.47;;;;;;;-142.57;100.00;68379.81;5034178;28;20037;-78
2022/09/25 03:39:37;;;;;;;16.40;4.45;;;;;;;-142.57;100.00;68379.81;5037451;28;20025;-78
2022/09/25 03:42:03;;;;;;;10.77;5.10;;;;;;;-142.57;100.00;68379.81;5054611;28;20029;-76
2022/09/25 03:44:29;;;;;;;12.75;4.97;;;;;;;-142.57;100.00;68379.81;5049620;28;20028;-78
2022/09/25 03:46:54;;;;;;;12.23;5.10;;;;;;;-142.57;100.00;68379.81;5034462;28;20024;-77
2022/09/25 03:49:19;;;;;;;13.07;4.80;;;;;;;-142.57;100.00;68379.81;5037387;28;20017;-77
2022/09/25 03:51:45;;;;;;;14.20;5.53;;;;;;;-142.57;100.00;68379.81;5054749;28;20453;-75
2022/09/25 03:54:10;;;;;;;16.52;5.53;;;;;;;-142.57;100.00;68379.81;5055412;28;20025;-76
2022/09/25 03:56:35;;;;;;;11.93;4.80;;;;;;;-142.57;100.00;68379.81;5056805;28;20467;-77
2022/09/25 03:59:01;;;;;;;12.45;4.68;;;;;;;-142.57;100.00;68379.81;5029195;28;20361;-77
2022/09/25 04:01:27;;;;;;;9.38;4.40;;;;;;;-142.57;100.00;68379.81;5037100;28;20033;-77
2022/09/25 04:03:53;;;;;;;13.18;6.00;;;;;;;-142.57;100.00;68379.81;5053449;28;20032;-75
2022/09/25 04:06:22;;;;;;;15.82;5.10;;;;;;;-142.57;100.00;68379.81;5054471;28;20052;-78
2022/09/25 04:08:48;;;;;;;17.90;4.90;;;;;;;-142.57;100.00;68379.81;5070777;28;20017;-76
2022/09/25 04:11:16;;;;;;;8.32;4.57;;;;;;;-142.57;100.00;68379.81;5054920;28;20028;-76
2022/09/25 04:13:42;;;;;;;15.45;4.28;;;;;;;-142.57;100.00;68379.81;5039779;28;20048;-75
2022/09/25 04:16:08;;;;;;;16.15;4.88;;;;;;;-142.57;100.00;68379.81;5056678;28;20502;-75
2022/09/25 04:18:34;;;;;;;15.85;5.13;;;;;;;-142.57;100.00;68379.81;5033614;28;20112;-76
2022/09/25 04:21:01;;;;;;;16.60;5.45;;;;;;;-142.57;100.00;68379.81;5060188;28;20152;-76
2022/09/25 04:23:26;;;;;;;12.10;4.38;;;;;;;-142.57;100.00;68379.81;5031861;28;20047;-76
2022/09/25 04:25:52;;;;;;;11.40;4.32;;;;;;;-142.57;100.00;68379.81;5030507;28;20463;-77
2022/09/25 04:28:17;;;;;;;15.05;5.43;;;;;;;-142.57;100.00;68379.81;5051640;28;21209;-77
2022/09/25 04:30:43;;;;;;;34.58;7.38;;;;;;;-142.57;100.00;68379.81;5054663;28;20079;-77
2022/09/25 04:35:53;;;;;;;8.48;4.38;;;;;;;-142.57;100.00;68379.81;5042680;28;20067;-77
2022/09/25 04:38:18;;;;;;;34.08;6.47;;;;;;;-142.57;100.00;68379.81;5054110;28;20025;-77
2022/09/25 04:40:44;;;;;;;11.27;4.22;;;;;;;-142.57;100.00;68379.81;5052995;28;20055;-76
2022/09/25 04:43:10;;;;;;;16.10;4.97;;;;;;;-142.57;100.00;68379.81;5032991;28;20047;-74
2022/09/25 04:45:36;;;;;;;9.48;4.03;;;;;;;-142.57;100.00;68379.81;5037452;28;20061;-75
2022/09/25 04:48:02;;;;;;;15.63;4.95;;;;;;;-142.57;100.00;68379.81;5074599;28;20025;-75
2022/09/25 04:50:29;;;;;;;26.90;5.20;;;;;;;-142.57;100.00;68379.81;5036902;28;20482;-75
2022/09/25 04:52:56;;;;;;;7.47;4.40;;;;;;;-142.57;100.00;68379.81;5035638;28;20060;-71
2022/09/25 04:55:23;;;;;;;13.20;4.82;;;;;;;-142.57;100.00;68379.81;5051316;28;20032;-76
2022/09/25 04:57:56;;;;;;;14.10;4.35;;;;;;;-142.57;100.00;68379.81;5051849;28;20033;-76
2022/09/25 05:00:23;;;;;;;20.10;5.33;;;;;;;-142.57;100.00;68379.81;5052393;28;20032;-74
2022/09/25 05:02:49;;;;;;;13.68;5.28;;;;;;;-142.57;100.00;68379.81;5052265;28;20037;-75
2022/09/25 05:05:15;;;;;;;10.82;4.93;;;;;;;-142.57;100.00;68379.81;5055319;28;20085;-74
2022/09/25 05:07:50;;;;;;;9.93;4.57;;;;;;;-142.57;100.00;68379.81;5054175;28;20100;-75
2022/09/25 05:10:15;;;;;;;17.23;5.57;;;;;;;-142.57;100.00;68379.81;5036171;28;20033;-75
2022/09/25 05:12:41;;;;;;;10.43;5.00;;;;;;;-142.57;100.00;68379.81;5032418;28;20484;-75
2022/09/25 05:15:08;;;;;;;8.65;4.47;;;;;;;-142.57;100.00;68379.81;5051456;28;20494;-75
2022/09/25 05:17:33;;;;;;;12.30;5.53;;;;;;;-142.57;100.00;68379.81;5035201;28;20449;-75
2022/09/25 05:19:59;;;;;;;11.45;5.88;;;;;;;-142.57;100.00;68379.81;5017807;28;20052;-74
2022/09/25 05:22:24;;;;;;;14.27;5.70;;;;;;;-142.57;100.00;68379.81;5010246;28;20136;-75
2022/09/25 05:24:52;;;;;;;8.52;4.70;;;;;;;-142.57;100.00;68379.81;5027767;28;20123;-74
2022/09/25 05:27:17;;;;;;;15.30;5.90;;;;;;;-142.57;100.00;68379.81;5034807;28;20024;-74
2022/09/25 05:29:43;;;;;;;11.43;4.95;;;;;;;-142.57;100.00;68379.81;5029588;28;20044;-75
2022/09/25 05:32:08;;;;;;;10.07;5.70;;;;;;;-142.57;100.00;68379.81;5027693;28;20024;-75
2022/09/25 05:34:34;;;;;;;13.68;5.65;;;;;;;-142.57;100.00;68379.81;5027381;28;20036;-74
2022/09/25 05:36:59;;;;;;;11.90;5.13;;;;;;;-142.57;100.00;68379.81;5008796;28;20024;-75
2022/09/25 05:39:25;;;;;;;11.50;5.90;;;;;;;-142.57;100.00;68379.81;5009657;28;20090;-75
2022/09/25 05:41:51;;;;;;;11.43;5.57;;;;;;;-142.57;100.00;68379.81;5006482;28;20043;-75
2022/09/25 05:44:16;;;;;;;11.00;5.95;;;;;;;-142.57;100.00;68379.81;4993911;28;20140;-75
2022/09/25 05:46:42;;;;;;;9.52;5.38;;;;;;;-142.57;100.00;68379.81;4996678;28;20211;-75
2022/09/25 05:49:07;;;;;;;12.23;6.28;;;;;;;-142.57;100.00;68379.81;5009837;28;20029;-75
2022/09/25 05:51:33;;;;;;;21.15;6.90;;;;;;;-142.57;100.00;68379.81;5009255;28;20043;-75
2022/09/25 05:53:59;;;;;;;10.25;6.15;;;;;;;-142.57;100.00;68379.81;4999686;28;20036;-75
2022/09/25 05:56:24;;;;;;;10.18;5.68;;;;;;;-142.57;100.00;68379.81;4996170;28;20074;-74
2022/09/25 05:58:51;;;;;;;10.45;5.63;;;;;;;-142.57;100.00;68379.81;5011139;28;20866;-74
2022/09/25 06:01:19;;;;;;;27.17;5.75;;;;;;;-142.57;100.00;68379.81;5008852;28;20862;-75
2022/09/25 06:03:44;;;;;;;10.48;6.38;;;;;;;-142.57;100.00;68379.81;5012961;28;20152;-74
2022/09/25 06:06:10;;;;;;;14.32;5.47;;;;;;;-142.57;100.00;68379.81;5019466;28;20032;-72
2022/09/25 06:08:36;;;;;;;11.98;6.05;;;;;;;-142.57;100.00;68379.81;5012431;28;20311;-72
2022/09/25 06:11:02;;;;;;;18.10;6.90;;;;;;;-142.57;100.00;68379.81;5003762;28;20297;-73
2022/09/25 06:13:31;;;;;;;15.27;6.82;;;;;;;-142.57;100.00;68379.81;5039179;28;20063;-73
2022/09/25 06:15:56;;;;;;;11.80;5.85;;;;;;;-142.57;100.00;68379.81;5081697;28;20490;-72
2022/09/25 06:18:23;;;;;;;10.40;6.70;;;;;;;-142.57;100.00;68379.81;5034561;28;20116;-73
2022/09/25 06:20:49;;;;;;;18.75;6.90;;;;;;;-142.57;100.00;68379.81;5051311;28;20486;-73
2022/09/25 06:23:15;;;;;;;14.45;5.82;;;;;;;-142.57;100.00;68379.81;5051045;28;20379;-71
2022/09/25 06:25:41;;;;;;;12.15;6.10;;;;;;;-142.57;100.00;68379.81;5036076;28;20021;-72
2022/09/25 06:28:07;;;;;;;11.80;6.03;;;;;;;-142.57;100.00;68379.81;5037762;28;20100;-72
2022/09/25 06:30:34;;;;;;;10.45;6.22;;;;;;;-142.57;100.00;68379.81;5032629;28;20024;-73
2022/09/25 06:33:01;;;;;;;14.10;6.05;;;;;;;-142.57;100.00;68379.81;5043974;28;20028;-69
2022/09/25 06:35:30;;;;;;;15.88;6.38;;;;;;;-142.57;100.00;68379.81;5045966;28;20055;-72
2022/09/25 06:37:57;;;;;;;13.70;6.70;;;;;;;-142.57;100.00;68379.81;5049439;28;20407;-72
2022/09/25 06:40:25;;;;;;;19.67;6.15;;;;;;;-142.57;100.00;68379.81;5044412;28;20024;-73
2022/09/25 06:42:57;;;;;;;17.25;6.35;;;;;;;-142.57;100.00;68379.81;5043644;28;20029;-73
2022/09/25 06:45:23;;;;;;;12.77;6.22;;;;;;;-142.57;100.00;68379.81;5051339;28;20467;-73
2022/09/25 06:47:49;;;;;;;20.52;6.70;;;;;;;-142.57;100.00;68379.81;5049829;28;20028;-74
2022/09/25 06:50:14;;;;;;;13.48;6.32;;;;;;;-142.57;100.00;68379.81;5037175;28;20468;-74
2022/09/25 06:52:42;;;;;;;12.98;5.82;;;;;;;-142.57;100.00;68379.81;5034015;28;20082;-74
2022/09/25 06:55:07;;;;;;;15.73;5.15;;;;;;;-142.57;100.00;68379.81;5039202;28;20135;-74
2022/09/25 06:57:35;;;;;;;15.25;4.88;;;;;;;-142.57;100.00;68379.81;5041082;28;20054;-74
2022/09/25 07:00:02;;;;;;;15.73;5.70;;;;;;;-142.57;100.00;68379.81;5045621;28;20025;-73
2022/09/25 07:05:12;;;;;;;18.53;4.80;;;;;;;-142.57;100.00;68379.81;5053389;28;20035;-74
2022/09/25 07:07:38;;;;;;;11.10;4.55;;;;;;;-142.57;100.00;68379.81;5046549;28;20059;-75
2022/09/25 07:10:03;;;;;;;13.07;4.35;;;;;;;-142.57;100.00;68379.81;4992724;28;20026;-75
2022/09/25 07:12:31;;;;;;;26.75;5.38;;;;;;;-142.57;100.00;68379.81;5016543;28;20040;-73
2022/09/25 07:14:56;;;;;;;15.60;4.60;;;;;;;-142.57;100.00;68379.81;5025119;28;20052;-75
2022/09/25 07:17:21;;;;;;;12.68;5.07;;;;;;;-142.57;100.00;68379.81;5036404;28;20698;-73
2022/09/25 07:19:48;;;;;;;11.93;4.13;;;;;;;-142.57;100.00;68379.81;5052313;28;20029;-75
2022/09/25 07:22:13;;;;;;;14.63;5.25;;;;;;;-142.57;100.00;68379.81;5044521;28;20036;-75
2022/09/25 07:24:38;;;;;;;10.05;4.18;;;;;;;-142.57;100.00;68379.81;5056500;28;20154;-76
2022/09/25 07:27:04;;;;;;;8.57;3.95;;;;;;;-142.57;100.00;68379.81;5036255;28;20029;-74
2022/09/25 07:29:30;;;;;;;10.45;4.13;;;;;;;-142.57;100.00;68379.81;5052643;28;20387;-76
2022/09/25 07:31:55;;;;;;;7.00;4.13;;;;;;;-142.57;100.00;68379.81;5046346;28;20029;-76
2022/09/25 07:34:21;;;;;;;15.88;4.95;;;;;;;-142.57;100.00;68379.81;5044259;28;20505;-75
2022/09/25 07:36:46;;;;;;;13.07;4.13;;;;;;;-142.57;100.00;68379.81;5034628;28;20028;-75
2022/09/25 07:39:11;;;;;;;9.18;3.58;;;;;;;-142.57;100.00;68379.81;5052577;28;20036;-75
2022/09/25 07:41:37;;;;;;;11.40;4.97;;;;;;;-142.57;100.00;68379.81;5032162;28;20638;-75
2022/09/25 07:44:03;;;;;;;9.43;2.78;;;;;;;-142.57;100.00;68379.81;5049258;28;20074;-76
2022/09/25 07:46:30;;;;;;;13.57;4.38;;;;;;;-142.57;100.00;68379.81;5051292;28;20073;-76
2022/09/25 07:48:55;;;;;;;11.45;3.55;;;;;;;-142.57;100.00;68379.81;5049255;28;20057;-76
2022/09/25 07:51:23;;;;;;;27.90;4.93;;;;;;;-142.57;100.00;68379.81;5028442;28;20119;-77
2022/09/25 07:53:48;;;;;;;8.98;3.72;;;;;;;-142.57;100.00;68379.81;5051566;28;20040;-76
2022/09/25 07:56:14;;;;;;;17.08;3.25;;;;;;;-142.57;100.00;68379.81;5031365;28;20388;-76
2022/09/25 07:58:40;;;;;;;15.95;3.67;;;;;;;-142.57;100.00;68379.81;5034303;28;20044;-76
2022/09/25 08:01:09;;;;;;;7.05;3.50;;;;;;;-142.57;100.00;68379.81;5035332;28;20063;-77
2022/09/25 08:03:34;;;;;;;7.97;3.65;;;;;;;-142.57;100.00;68379.81;5050624;28;20021;-76
2022/09/25 08:06:05;;;;;;;9.25;4.05;;;;;;;-142.57;100.00;68379.81;5052212;28;20031;-75
2022/09/25 08:08:32;;;;;;;14.00;3.58;;;;;;;-142.57;100.00;68379.81;5051202;28;20052;-77
2022/09/25 08:11:06;;;;;;;8.60;3.53;;;;;;;-142.57;100.00;68379.81;5037305;28;20021;-78
2022/09/25 08:13:32;;;;;;;11.57;3.42;;;;;;;-142.57;100.00;68379.81;5034197;28;20029;-77
2022/09/25 08:15:58;;;;;;;8.63;3.35;;;;;;;-142.57;100.00;68379.81;5030294;28;20471;-77
2022/09/25 08:18:23;;;;;;;7.95;3.63;;;;;;;-142.57;100.00;68379.81;5031170;28;20518;-77
2022/09/25 08:20:49;;;;;;;9.27;2.97;;;;;;;-142.57;100.00;68379.81;5060529;28;20032;-78
2022/09/25 08:23:14;;;;;;;26.30;3.80;;;;;;;-142.57;100.00;68379.81;5034190;28;20032;-76
2022/09/25 08:25:39;;;;;;;11.27;3.38;;;;;;;-142.57;100.00;68379.81;5031728;28;20025;-78
2022/09/25 08:28:05;;;;;;;13.65;3.38;;;;;;;-142.57;100.00;68379.81;5020596;28;20064;-77
2022/09/25 08:30:30;;;;;;;10.50;3.00;;;;;;;-142.57;100.00;68379.81;5028503;28;20016;-76
2022/09/25 08:32:56;;;;;;;9.82;2.70;;;;;;;-142.57;100.00;68379.81;5062514;28;20091;-77
2022/09/25 08:35:21;;;;;;;7.63;2.17;;;;;;;-142.57;100.00;68379.81;5063001;28;20025;-78
2022/09/25 08:37:47;;;;;;;8.52;3.10;;;;;;;-142.57;100.00;68379.81;5050002;28;20784;-77
2022/09/25 08:40:23;;;;;;;17.58;3.15;;;;;;;-142.57;100.00;68379.81;5048041;28;20028;-76
2022/09/25 08:42:52;;;;;;;8.10;2.97;;;;;;;-142.57;100.00;68379.81;5047638;28;20498;-79
2022/09/25 08:51:18;;;;;;;8.70;2.55;;;;;;;-142.57;100.00;68379.81;5039069;28;20040;-77
2022/09/25 08:53:44;;;;;;;15.77;3.55;;;;;;;-142.57;100.00;68379.81;5032401;28;20391;-76
2022/09/25 08:56:18;;;;;;;6.78;2.30;;;;;;;-142.57;100.00;68379.81;5032816;28;20476;-75
2022/09/25 08:59:03;;;;;;;6.10;2.35;;;;;;;-142.57;100.00;68379.81;5037164;28;20044;-77
2022/09/25 09:01:48;;;;;;;6.03;2.17;;;;;;;-142.57;100.00;68379.81;5036075;28;20032;-74
2022/09/25 09:04:23;;;;;;;8.40;2.60;;;;;;;-142.57;100.00;68379.81;5054682;28;20028;-75
2022/09/25 09:06:52;;;;;;;8.35;2.28;;;;;;;-142.57;100.00;68379.81;5054801;28;20033;-78
2022/09/25 09:09:29;;;;;;;8.18;2.00;;;;;;;-142.57;100.00;68379.81;5064590;28;20028;-77
2022/09/25 09:12:28;;;;;;;6.93;2.55;;;;;;;-142.57;100.00;68379.81;5025478;28;20025;-77
2022/09/25 09:15:05;;;;;;;8.27;3.03;;;;;;;-142.57;100.00;68379.81;5029089;28;20048;-75
2022/09/25 09:17:38;;;;;;;10.68;2.40;;;;;;;-142.57;100.00;68379.81;5051213;28;20033;-75
2022/09/25 09:20:14;;;;;;;8.55;2.33;;;;;;;-142.57;100.00;68379.81;5034408;28;20464;-74
2022/09/25 09:22:45;;;;;;;15.55;2.60;;;;;;;-142.57;100.00;68379.81;5028021;28;20487;-75
2022/09/25 09:25:29;;;;;;;6.13;2.22;;;;;;;-142.57;100.00;68379.81;5049971;28;20035;-75
2022/09/25 09:28:41;;;;;;;9.55;2.47;;;;;;;-142.57;100.00;68379.81;5031326;28;20039;-76
2022/09/25 09:31:25;;;;;;;6.88;1.90;;;;;;;-142.57;100.00;68379.81;5028112;28;20052;-74
2022/09/25 09:34:07;;;;;;;6.23;2.07;;;;;;;-142.57;100.00;68379.81;5050098;28;20032;-74
2022/09/25 09:36:35;;;;;;;16.55;2.58;;;;;;;-142.57;100.00;68379.81;5050276;28;20384;-74
2022/09/25 09:39:12;;;;;;;12.60;2.65;;;;;;;-142.57;100.00;68379.81;5030464;28;20025;-74
2022/09/25 09:41:48;;;;;;;5.05;1.85;;;;;;;-142.57;100.00;68379.81;5048529;28;20634;-75
2022/09/25 09:44:29;;;;;;;4.75;1.35;;;;;;;-142.57;100.00;68379.81;5050370;28;20055;-74
2022/09/25 09:47:01;;;;;;;5.65;1.70;;;;;;;-142.57;100.00;68379.81;5038467;28;20025;-74
2022/09/25 09:49:34;;;;;;;10.60;2.10;;;;;;;-142.57;100.00;68379.81;5031314;28;20025;-75
2022/09/25 09:52:16;;;;;;;7.32;2.10;;;;;;;-142.57;100.00;68379.81;5068941;28;20074;-77
2022/09/25 09:54:59;;;;;;;7.35;2.20;;;;;;;-142.57;100.00;68379.81;5047022;28;20033;-74
2022/09/25 09:57:30;;;;;;;17.25;3.13;;;;;;;-142.57;100.00;68379.81;5047881;28;20052;-74
2022/09/25 09:59:59;;;;;;;5.15;1.67;;;;;;;-142.57;100.00;68379.81;5032057;28;20791;-75
2022/09/25 10:02:42;;;;;;;5.50;1.58;;;;;;;-142.57;100.00;68379.81;5027521;28;20029;-75
2022/09/25 10:05:29;;;;;;;5.60;1.80;;;;;;;-142.57;100.00;68379.81;5030241;28;20483;-74
2022/09/25 10:07:54;;;;;;;5.35;1.92;;;;;;;-142.57;100.00;68379.81;5010458;28;20025;-74
2022/09/25 10:10:23;;;;;;;7.03;2.03;;;;;;;-142.57;100.00;68379.81;5052804;28;20016;-75
2022/09/25 10:12:50;;;;;;;13.00;2.33;;;;;;;-142.57;100.00;68379.81;5038810;28;20114;-74
2022/09/25 10:15:40;;;;;;;9.45;1.92;;;;;;;-142.57;100.00;68379.81;5043008;28;20754;-75
2022/09/25 10:18:06;;;;;;;9.07;1.70;;;;;;;-142.57;100.00;68379.81;5046350;28;20037;-76
2022/09/25 10:20:42;;;;;;;11.75;2.15;;;;;;;-142.57;100.00;68379.81;5029946;28;20021;-76
2022/09/25 10:23:23;;;;;;;4.53;1.55;;;;;;;-142.57;100.00;68379.81;5049149;28;20111;-76
2022/09/25 10:25:49;;;;;;;3.63;1.55;;;;;;;-142.57;100.00;68379.81;5029928;28;20033;-76
2022/09/25 10:28:41;;;;;;;5.50;2.55;;;;;;;-142.57;100.00;68379.81;5032964;28;20474;-75
2022/09/25 10:31:07;;;;;;;9.35;2.13;;;;;;;-142.57;100.00;68379.81;5049670;28;20056;-77
2022/09/25 10:33:33;;;;;;;9.25;2.28;;;;;;;-142.57;100.00;68379.81;5033641;28;20503;-76
2022/09/25 10:35:59;;;;;;;3.50;1.25;;;;;;;-142.57;100.00;68379.81;5029064;28;20060;-76
2022/09/25 10:38:32;;;;;;;12.18;1.95;;;;;;;-142.57;100.00;68379.81;5045587;28;20032;-75
2022/09/25 10:41:05;;;;;;;5.20;1.73;;;;;;;-142.57;100.00;68379.81;5029223;28;20144;-75
2022/09/25 10:43:30;;;;;;;6.82;1.90;;;;;;;-142.57;100.00;68379.81;5016299;28;20029;-76
2022/09/25 10:46:13;;;;;;;5.78;2.13;;;;;;;-142.57;100.00;68379.81;5058898;28;20483;-77
2022/09/25 10:51:24;;;;;;;6.82;1.65;;;;;;;-142.57;100.00;68379.81;5048883;28;20047;-77
2022/09/25 10:54:11;;;;;;;5.35;1.67;;;;;;;-142.57;100.00;68379.81;5028293;28;20033;-76
2022/09/25 10:56:37;;;;;;;3.65;1.30;;;;;;;-142.57;100.00;68379.81;5028597;28;20032;-77
2022/09/25 10:59:14;;;;;;;8.05;2.63;;;;;;;-142.57;100.00;68379.81;5048308;28;20430;-76
2022/09/25 11:01:40;;;;;;;6.07;2.13;;;;;;;-142.57;100.00;68379.81;5030530;28;20025;-76
2022/09/25 11:04:23;;;;;;;24.45;2.58;;;;;;;-142.57;100.00;68379.81;5029097;28;20369;-75
2022/09/25 11:07:00;;;;;;;5.25;2.15;;;;;;;-142.57;100.00;68379.81;5045543;28;20035;-75
2022/09/25 11:09:27;;;;;;;5.13;1.73;;;;;;;-142.57;100.00;68379.81;5030413;28;20464;-75
2022/09/25 11:12:23;;;;;;;7.22;1.25;;;;;;;-142.57;100.00;68379.81;5053827;28;20076;-75
2022/09/25 11:15:01;;;;;;;4.25;1.48;;;;;;;-142.57;100.00;68379.81;5054228;28;20066;-75
2022/09/25 11:17:48;;;;;;;6.85;1.50;;;;;;;-142.57;100.00;68379.81;5036207;28;20032;-76
2022/09/25 11:20:30;;;;;;;5.10;1.98;;;;;;;-142.57;100.00;68379.81;5027953;28;20105;-77
2022/09/25 11:23:07;;;;;;;5.80;1.75;;;;;;;-142.57;100.00;68379.81;5018638;28;20510;-77
2022/09/25 11:25:47;;;;;;;6.28;1.90;;;;;;;-142.57;100.00;68379.81;5047808;28;20021;-79
2022/09/25 11:28:26;;;;;;;3.58;1.33;;;;;;;-142.57;100.00;68379.81;5030398;28;20532;-78
2022/09/25 11:31:01;;;;;;;5.88;1.45;;;;;;;-142.57;100.00;68379.81;5030172;28;20060;-79
2022/09/25 11:33:41;;;;;;;5.20;1.50;;;;;;;-142.57;100.00;68379.81;5042447;28;20032;-79
2022/09/25 11:36:19;;;;;;;5.93;1.52;;;;;;;-142.57;100.00;68379.81;5037211;28;20084;-77